Decoded Metar for LFBA (AGEN in FRANCE) (IATA:AGF) | Meteo·Mobile Aviation Weather
aviador You're here:

LFBA Decoded Metar

AGEN in FRANCE
Report Time2018-12-16 17:00:00
UTC Time2018-12-16 17:27:09
Flight Rules ifr IFR
Wind270° at 02 kt
W.Decomp.*RWY 29: 1.9 kt HW 0.7 kt LCW
W.Rank270° ranks 4
Current wind is below 270° avg. (5.9)
Visibility4200 m
Phenomena:Shower Rain
Mist
Clouds:Broken 014 Hf
Ceiling1,400 ft
Temp08°C (ISA -7)
Dew Point08°C (100% RH)
AAT6.8°C
QNH1015 hPa
Density Alt-518 ft
Elevation197 ft
Report Wrong Elevation
Raw Report
LFBA 161700Z AUTO 27002KT 4200 BR NSC 08/08 Q1015 TEMPO 26015G25KT
SHRA BKN014 BKN020TCU=

Extra information for LFBA:More info

Metar Taf Metar & Taf Last 4 Metars F.Rules Stats Wind Profile Meteogram Temp Stats Airport Information Weather charts Add Link Nearby VenuesMetar ALERT Operation Metar Decoded Social comments